sensor_id;sensor_type;location;lat;lon;timestamp;pressure;altitude;pressure_sealevel;temperature;humidity
46211;BME280;52144;48.040;-1.594;2022-07-19T00:02:20;100654.28;;;29.55;41.42
46211;BME280;52144;48.040;-1.594;2022-07-19T00:04:48;100657.44;;;29.74;40.91
46211;BME280;52144;48.040;-1.594;2022-07-19T00:07:16;100660.63;;;29.56;41.48
46211;BME280;52144;48.040;-1.594;2022-07-19T00:09:45;100653.84;;;29.52;41.48
46211;BME280;52144;48.040;-1.594;2022-07-19T00:12:13;100652.19;;;29.57;41.75
46211;BME280;52144;48.040;-1.594;2022-07-19T00:14:41;100650.22;;;29.51;41.62
46211;BME280;52144;48.040;-1.594;2022-07-19T00:17:08;100647.09;;;29.54;41.53
46211;BME280;52144;48.040;-1.594;2022-07-19T00:19:36;100649.84;;;29.54;41.76
46211;BME280;52144;48.040;-1.594;2022-07-19T00:22:10;100641.53;;;29.48;41.77
46211;BME280;52144;48.040;-1.594;2022-07-19T00:24:38;100646.75;;;29.43;41.54
46211;BME280;52144;48.040;-1.594;2022-07-19T00:27:07;100640.03;;;29.45;41.84
46211;BME280;52144;48.040;-1.594;2022-07-19T00:29:35;100626.06;;;29.40;42.39
46211;BME280;52144;48.040;-1.594;2022-07-19T00:32:03;100632.97;;;29.36;41.86
46211;BME280;52144;48.040;-1.594;2022-07-19T00:34:31;100628.00;;;29.25;42.34
46211;BME280;52144;48.040;-1.594;2022-07-19T00:36:59;100633.47;;;29.25;42.37
46211;BME280;52144;48.040;-1.594;2022-07-19T00:39:26;100629.06;;;29.24;42.09
46211;BME280;52144;48.040;-1.594;2022-07-19T00:41:54;100631.94;;;29.15;42.60
46211;BME280;52144;48.040;-1.594;2022-07-19T00:44:23;100631.53;;;29.18;42.67
46211;BME280;52144;48.040;-1.594;2022-07-19T00:46:51;100628.00;;;29.25;42.42
46211;BME280;52144;48.040;-1.594;2022-07-19T00:49:19;100621.53;;;29.11;42.24
46211;BME280;52144;48.040;-1.594;2022-07-19T00:51:47;100618.22;;;29.15;42.33
46211;BME280;52144;48.040;-1.594;2022-07-19T00:54:19;100618.88;;;29.17;42.17
46211;BME280;52144;48.040;-1.594;2022-07-19T00:56:48;100612.53;;;29.17;42.58
46211;BME280;52144;48.040;-1.594;2022-07-19T00:59:17;100614.16;;;29.11;42.91
46211;BME280;52144;48.040;-1.594;2022-07-19T01:01:46;100612.53;;;29.02;42.73
46211;BME280;52144;48.040;-1.594;2022-07-19T01:04:14;100615.00;;;29.12;42.47
46211;BME280;52144;48.040;-1.594;2022-07-19T01:06:43;100605.66;;;28.91;43.06
46211;BME280;52144;48.040;-1.594;2022-07-19T01:09:11;100605.00;;;28.89;42.89
46211;BME280;52144;48.040;-1.594;2022-07-19T01:11:39;100612.13;;;28.84;43.48
46211;BME280;52144;48.040;-1.594;2022-07-19T01:14:07;100605.38;;;28.86;43.55
46211;BME280;52144;48.040;-1.594;2022-07-19T01:16:35;100598.53;;;28.75;43.73
46211;BME280;52144;48.040;-1.594;2022-07-19T01:19:06;100601.44;;;28.74;43.19
46211;BME280;52144;48.040;-1.594;2022-07-19T01:21:36;100594.75;;;28.76;43.62
46211;BME280;52144;48.040;-1.594;2022-07-19T01:24:04;100594.56;;;28.63;43.37
46211;BME280;52144;48.040;-1.594;2022-07-19T01:26:32;100584.00;;;28.60;43.95
46211;BME280;52144;48.040;-1.594;2022-07-19T01:29:00;100584.78;;;28.54;44.14
46211;BME280;52144;48.040;-1.594;2022-07-19T01:31:27;100580.97;;;28.55;44.09
46211;BME280;52144;48.040;-1.594;2022-07-19T01:33:55;100572.75;;;28.55;44.12
46211;BME280;52144;48.040;-1.594;2022-07-19T01:36:23;100573.59;;;28.55;43.92
46211;BME280;52144;48.040;-1.594;2022-07-19T01:38:52;100562.09;;;28.60;44.24
46211;BME280;52144;48.040;-1.594;2022-07-19T01:41:20;100562.84;;;28.54;44.16
46211;BME280;52144;48.040;-1.594;2022-07-19T01:43:48;100553.94;;;28.67;43.72
46211;BME280;52144;48.040;-1.594;2022-07-19T01:46:16;100556.97;;;28.57;44.10
46211;BME280;52144;48.040;-1.594;2022-07-19T01:48:44;100555.97;;;28.79;43.53
46211;BME280;52144;48.040;-1.594;2022-07-19T01:51:12;100559.88;;;28.70;43.65
46211;BME280;52144;48.040;-1.594;2022-07-19T01:53:40;100553.75;;;28.68;43.55
46211;BME280;52144;48.040;-1.594;2022-07-19T01:56:09;100546.19;;;28.70;43.81
46211;BME280;52144;48.040;-1.594;2022-07-19T01:58:37;100544.75;;;28.74;43.86
46211;BME280;52144;48.040;-1.594;2022-07-19T02:01:05;100546.97;;;28.64;43.55
46211;BME280;52144;48.040;-1.594;2022-07-19T02:03:33;100549.69;;;28.64;43.84
46211;BME280;52144;48.040;-1.594;2022-07-19T02:06:01;100546.41;;;28.54;44.00
46211;BME280;52144;48.040;-1.594;2022-07-19T02:08:30;100541.47;;;28.64;43.88
46211;BME280;52144;48.040;-1.594;2022-07-19T02:10:57;100542.50;;;28.63;43.83
46211;BME280;52144;48.040;-1.594;2022-07-19T02:13:47;100533.63;;;28.61;44.01
46211;BME280;52144;48.040;-1.594;2022-07-19T02:16:15;100529.97;;;28.54;44.25
46211;BME280;52144;48.040;-1.594;2022-07-19T02:18:43;100529.38;;;28.58;44.00
46211;BME280;52144;48.040;-1.594;2022-07-19T02:21:11;100529.00;;;28.47;44.75
46211;BME280;52144;48.040;-1.594;2022-07-19T02:23:39;100523.72;;;28.60;44.17
46211;BME280;52144;48.040;-1.594;2022-07-19T02:26:07;100523.72;;;28.60;43.76
46211;BME280;52144;48.040;-1.594;2022-07-19T02:28:35;100518.03;;;28.47;44.60
46211;BME280;52144;48.040;-1.594;2022-07-19T02:31:04;100523.72;;;28.60;44.38
46211;BME280;52144;48.040;-1.594;2022-07-19T02:33:32;100517.94;;;28.55;44.22
46211;BME280;52144;48.040;-1.594;2022-07-19T02:36:00;100520.50;;;28.56;44.05
46211;BME280;52144;48.040;-1.594;2022-07-19T02:38:27;100515.22;;;28.55;44.35
46211;BME280;52144;48.040;-1.594;2022-07-19T02:40:55;100526.25;;;28.61;43.88
46211;BME280;52144;48.040;-1.594;2022-07-19T02:43:23;100521.44;;;28.49;44.44
46211;BME280;52144;48.040;-1.594;2022-07-19T02:45:51;100511.81;;;28.53;44.19
46211;BME280;52144;48.040;-1.594;2022-07-19T02:48:20;100510.88;;;28.46;44.66
46211;BME280;52144;48.040;-1.594;2022-07-19T02:50:48;100513.41;;;28.47;44.38
46211;BME280;52144;48.040;-1.594;2022-07-19T02:53:16;100507.47;;;28.44;44.71
46211;BME280;52144;48.040;-1.594;2022-07-19T02:55:44;100505.31;;;28.54;44.51
46211;BME280;52144;48.040;-1.594;2022-07-19T02:58:11;100502.66;;;28.46;44.73
46211;BME280;52144;48.040;-1.594;2022-07-19T03:00:39;100498.66;;;28.48;44.72
46211;BME280;52144;48.040;-1.594;2022-07-19T03:03:07;100500.75;;;28.46;44.67
46211;BME280;52144;48.040;-1.594;2022-07-19T03:05:55;100497.28;;;28.37;44.93
46211;BME280;52144;48.040;-1.594;2022-07-19T03:08:23;100499.09;;;28.30;44.75
46211;BME280;52144;48.040;-1.594;2022-07-19T03:10:50;100503.78;;;28.36;44.78
46211;BME280;52144;48.040;-1.594;2022-07-19T03:13:18;100495.84;;;28.41;44.32
46211;BME280;52144;48.040;-1.594;2022-07-19T03:15:46;100501.88;;;28.37;44.67
46211;BME280;52144;48.040;-1.594;2022-07-19T03:18:14;100492.22;;;28.19;45.56
46211;BME280;52144;48.040;-1.594;2022-07-19T03:20:42;100491.44;;;28.11;45.60
46211;BME280;52144;48.040;-1.594;2022-07-19T03:23:11;100489.56;;;28.11;45.13
46211;BME280;52144;48.040;-1.594;2022-07-19T03:25:39;100496.56;;;28.14;45.51
46211;BME280;52144;48.040;-1.594;2022-07-19T03:28:06;100497.03;;;28.17;45.60
46211;BME280;52144;48.040;-1.594;2022-07-19T03:30:34;100497.88;;;28.18;45.33
46211;BME280;52144;48.040;-1.594;2022-07-19T03:33:02;100489.88;;;28.01;45.98
46211;BME280;52144;48.040;-1.594;2022-07-19T03:35:30;100488.06;;;27.79;46.11
46211;BME280;52144;48.040;-1.594;2022-07-19T03:37:58;100486.66;;;27.98;45.63
46211;BME280;52144;48.040;-1.594;2022-07-19T03:40:27;100491.00;;;27.92;45.88
46211;BME280;52144;48.040;-1.594;2022-07-19T03:42:55;100486.34;;;27.78;46.51
46211;BME280;52144;48.040;-1.594;2022-07-19T03:45:22;100474.47;;;27.71;46.22
46211;BME280;52144;48.040;-1.594;2022-07-19T03:47:50;100477.94;;;27.79;46.48
46211;BME280;52144;48.040;-1.594;2022-07-19T03:50:18;100480.59;;;27.73;46.95
46211;BME280;52144;48.040;-1.594;2022-07-19T03:52:46;100482.38;;;27.66;46.92
46211;BME280;52144;48.040;-1.594;2022-07-19T03:55:14;100475.38;;;27.78;46.05
46211;BME280;52144;48.040;-1.594;2022-07-19T03:57:43;100474.25;;;27.57;46.68
46211;BME280;52144;48.040;-1.594;2022-07-19T04:00:11;100486.53;;;27.61;47.02
46211;BME280;52144;48.040;-1.594;2022-07-19T04:02:39;100488.50;;;27.53;47.10
46211;BME280;52144;48.040;-1.594;2022-07-19T04:05:07;100481.44;;;27.58;47.00
46211;BME280;52144;48.040;-1.594;2022-07-19T04:07:35;100479.81;;;27.49;47.32
46211;BME280;52144;48.040;-1.594;2022-07-19T04:10:04;100481.31;;;27.52;47.43
46211;BME280;52144;48.040;-1.594;2022-07-19T04:12:32;100485.19;;;27.57;47.36
46211;BME280;52144;48.040;-1.594;2022-07-19T04:15:01;100492.06;;;27.53;47.10
46211;BME280;52144;48.040;-1.594;2022-07-19T04:17:29;100491.31;;;27.59;47.24
46211;BME280;52144;48.040;-1.594;2022-07-19T04:19:57;100503.06;;;27.68;47.53
46211;BME280;52144;48.040;-1.594;2022-07-19T04:22:25;100504.06;;;27.52;47.14
46211;BME280;52144;48.040;-1.594;2022-07-19T04:24:53;100503.84;;;27.39;47.93
46211;BME280;52144;48.040;-1.594;2022-07-19T04:27:20;100495.72;;;27.31;48.05
46211;BME280;52144;48.040;-1.594;2022-07-19T04:29:48;100496.56;;;27.31;48.16
46211;BME280;52144;48.040;-1.594;2022-07-19T04:32:17;100496.03;;;27.36;47.97
46211;BME280;52144;48.040;-1.594;2022-07-19T04:34:47;100501.69;;;27.34;48.26
46211;BME280;52144;48.040;-1.594;2022-07-19T04:37:14;100503.75;;;27.09;48.90
46211;BME280;52144;48.040;-1.594;2022-07-19T04:39:42;100493.00;;;27.08;48.79
46211;BME280;52144;48.040;-1.594;2022-07-19T04:42:10;100494.88;;;27.07;48.89
46211;BME280;52144;48.040;-1.594;2022-07-19T04:44:38;100491.97;;;26.86;49.35
46211;BME280;52144;48.040;-1.594;2022-07-19T04:47:06;100495.91;;;27.06;49.00
46211;BME280;52144;48.040;-1.594;2022-07-19T04:49:35;100494.63;;;26.94;49.42
46211;BME280;52144;48.040;-1.594;2022-07-19T04:52:03;100492.47;;;26.89;49.83
46211;BME280;52144;48.040;-1.594;2022-07-19T04:54:32;100495.38;;;26.88;50.31
46211;BME280;52144;48.040;-1.594;2022-07-19T04:57:00;100490.63;;;26.81;50.15
46211;BME280;52144;48.040;-1.594;2022-07-19T04:59:28;100482.78;;;26.78;50.14
46211;BME280;52144;48.040;-1.594;2022-07-19T05:01:55;100489.41;;;26.84;50.09
46211;BME280;52144;48.040;-1.594;2022-07-19T05:04:23;100490.50;;;26.98;50.01
46211;BME280;52144;48.040;-1.594;2022-07-19T05:06:52;100483.63;;;27.02;49.69
46211;BME280;52144;48.040;-1.594;2022-07-19T05:09:23;100483.94;;;27.07;49.63
46211;BME280;52144;48.040;-1.594;2022-07-19T05:11:52;100476.59;;;27.08;49.71
46211;BME280;52144;48.040;-1.594;2022-07-19T05:14:20;100475.00;;;27.13;49.63
46211;BME280;52144;48.040;-1.594;2022-07-19T05:16:48;100469.84;;;26.95;50.01
46211;BME280;52144;48.040;-1.594;2022-07-19T05:19:17;100466.66;;;27.07;49.89
46211;BME280;52144;48.040;-1.594;2022-07-19T05:21:44;100469.41;;;27.07;50.08
46211;BME280;52144;48.040;-1.594;2022-07-19T05:24:14;100463.63;;;27.25;49.61
46211;BME280;52144;48.040;-1.594;2022-07-19T05:26:42;100472.16;;;27.30;49.66
46211;BME280;52144;48.040;-1.594;2022-07-19T05:29:10;100482.94;;;27.46;49.28
46211;BME280;52144;48.040;-1.594;2022-07-19T05:31:38;100475.75;;;27.45;49.74
46211;BME280;52144;48.040;-1.594;2022-07-19T05:34:06;100485.31;;;27.64;49.02
46211;BME280;52144;48.040;-1.594;2022-07-19T05:36:34;100498.03;;;27.72;49.00
46211;BME280;52144;48.040;-1.594;2022-07-19T05:39:02;100499.56;;;27.74;49.44
46211;BME280;52144;48.040;-1.594;2022-07-19T05:41:32;100491.00;;;27.92;49.30
46211;BME280;52144;48.040;-1.594;2022-07-19T05:44:00;100491.66;;;27.94;49.16
46211;BME280;52144;48.040;-1.594;2022-07-19T05:46:28;100488.06;;;27.79;49.55
46211;BME280;52144;48.040;-1.594;2022-07-19T05:48:56;100474.53;;;27.77;49.60
46211;BME280;52144;48.040;-1.594;2022-07-19T05:51:24;100473.50;;;27.64;49.93
46211;BME280;52144;48.040;-1.594;2022-07-19T05:53:51;100471.44;;;27.80;50.10
46211;BME280;52144;48.040;-1.594;2022-07-19T05:56:19;100468.22;;;27.77;50.30
46211;BME280;52144;48.040;-1.594;2022-07-19T05:58:48;100456.13;;;27.86;49.85
46211;BME280;52144;48.040;-1.594;2022-07-19T06:01:16;100452.41;;;27.87;50.10
46211;BME280;52144;48.040;-1.594;2022-07-19T06:03:50;100453.31;;;27.94;50.44
46211;BME280;52144;48.040;-1.594;2022-07-19T06:06:25;100463.81;;;28.06;50.02
46211;BME280;52144;48.040;-1.594;2022-07-19T06:08:54;100465.59;;;28.13;49.86
46211;BME280;52144;48.040;-1.594;2022-07-19T06:11:22;100461.38;;;28.32;49.22
46211;BME280;52144;48.040;-1.594;2022-07-19T06:13:53;100468.25;;;28.43;49.63
46211;BME280;52144;48.040;-1.594;2022-07-19T06:16:21;100468.81;;;28.53;49.02
46211;BME280;52144;48.040;-1.594;2022-07-19T06:18:49;100458.59;;;28.62;50.06
46211;BME280;52144;48.040;-1.594;2022-07-19T06:21:18;100466.69;;;28.70;49.40
46211;BME280;52144;48.040;-1.594;2022-07-19T06:23:47;100462.75;;;28.79;49.20
46211;BME280;52144;48.040;-1.594;2022-07-19T06:26:15;100460.41;;;28.55;49.54
46211;BME280;52144;48.040;-1.594;2022-07-19T06:28:43;100458.13;;;28.80;49.20
46211;BME280;52144;48.040;-1.594;2022-07-19T06:31:14;100453.19;;;28.90;49.35
46211;BME280;52144;48.040;-1.594;2022-07-19T06:33:48;100450.94;;;28.79;49.26
46211;BME280;52144;48.040;-1.594;2022-07-19T06:36:16;100461.31;;;29.05;49.36
46211;BME280;52144;48.040;-1.594;2022-07-19T06:38:44;100475.03;;;29.05;48.61
46211;BME280;52144;48.040;-1.594;2022-07-19T06:41:14;100451.84;;;28.86;49.22
46211;BME280;52144;48.040;-1.594;2022-07-19T06:43:42;100439.53;;;28.97;49.71
46211;BME280;52144;48.040;-1.594;2022-07-19T06:46:10;100446.28;;;29.23;48.87
46211;BME280;52144;48.040;-1.594;2022-07-19T06:48:39;100448.22;;;29.29;48.77
46211;BME280;52144;48.040;-1.594;2022-07-19T06:51:07;100451.72;;;29.44;48.84
46211;BME280;52144;48.040;-1.594;2022-07-19T06:53:36;100451.13;;;29.49;48.46
46211;BME280;52144;48.040;-1.594;2022-07-19T06:56:04;100448.56;;;29.47;48.44
46211;BME280;52144;48.040;-1.594;2022-07-19T06:58:32;100454.78;;;29.56;49.36
46211;BME280;52144;48.040;-1.594;2022-07-19T07:01:07;100462.22;;;29.69;48.30
46211;BME280;52144;48.040;-1.594;2022-07-19T07:03:35;100457.41;;;29.71;48.06
46211;BME280;52144;48.040;-1.594;2022-07-19T07:06:05;100454.69;;;29.77;48.71
46211;BME280;52144;48.040;-1.594;2022-07-19T07:08:33;100457.69;;;29.83;48.89
46211;BME280;52144;48.040;-1.594;2022-07-19T07:11:00;100467.06;;;29.95;48.98
46211;BME280;52144;48.040;-1.594;2022-07-19T07:13:28;100473.50;;;30.15;48.74
46211;BME280;52144;48.040;-1.594;2022-07-19T07:15:56;100492.53;;;30.17;49.33
46211;BME280;52144;48.040;-1.594;2022-07-19T07:18:24;100479.94;;;30.43;49.13
46211;BME280;52144;48.040;-1.594;2022-07-19T07:20:52;100481.03;;;30.55;49.11
46211;BME280;52144;48.040;-1.594;2022-07-19T07:23:21;100500.72;;;30.52;48.77
46211;BME280;52144;48.040;-1.594;2022-07-19T07:25:50;100507.94;;;30.59;49.06
46211;BME280;52144;48.040;-1.594;2022-07-19T07:28:20;100517.66;;;30.69;48.88
46211;BME280;52144;48.040;-1.594;2022-07-19T07:30:51;100510.44;;;30.48;48.80
46211;BME280;52144;48.040;-1.594;2022-07-19T07:33:19;100509.63;;;30.67;48.86
46211;BME280;52144;48.040;-1.594;2022-07-19T07:35:47;100500.16;;;30.83;49.02
46211;BME280;52144;48.040;-1.594;2022-07-19T07:38:15;100506.34;;;30.98;48.86
46211;BME280;52144;48.040;-1.594;2022-07-19T07:40:44;100505.66;;;30.83;49.01
46211;BME280;52144;48.040;-1.594;2022-07-19T07:43:12;100517.34;;;30.92;48.93
46211;BME280;52144;48.040;-1.594;2022-07-19T07:45:40;100516.91;;;30.88;49.34
46211;BME280;52144;48.040;-1.594;2022-07-19T07:48:09;100520.97;;;30.44;50.25
46211;BME280;52144;48.040;-1.594;2022-07-19T07:50:36;100519.38;;;30.76;49.67
46211;BME280;52144;48.040;-1.594;2022-07-19T07:53:04;100530.56;;;30.68;50.36
46211;BME280;52144;48.040;-1.594;2022-07-19T07:55:32;100522.00;;;31.11;49.81
46211;BME280;52144;48.040;-1.594;2022-07-19T07:58:07;100532.59;;;30.94;50.26
46211;BME280;52144;48.040;-1.594;2022-07-19T08:00:36;100525.53;;;30.78;50.55
46211;BME280;52144;48.040;-1.594;2022-07-19T08:03:05;100539.59;;;30.07;51.98
46211;BME280;52144;48.040;-1.594;2022-07-19T08:05:33;100523.53;;;30.46;51.03
46211;BME280;52144;48.040;-1.594;2022-07-19T08:08:01;100525.72;;;30.77;50.60
46211;BME280;52144;48.040;-1.594;2022-07-19T08:10:30;100538.06;;;30.88;51.09
46211;BME280;52144;48.040;-1.594;2022-07-19T08:12:59;100537.94;;;30.61;51.83
46211;BME280;52144;48.040;-1.594;2022-07-19T08:15:35;100535.44;;;30.66;52.28
46211;BME280;52144;48.040;-1.594;2022-07-19T08:18:04;100537.25;;;30.94;51.41
46211;BME280;52144;48.040;-1.594;2022-07-19T08:20:32;100537.69;;;31.17;50.72
46211;BME280;52144;48.040;-1.594;2022-07-19T08:23:00;100533.66;;;31.20;50.63
46211;BME280;52144;48.040;-1.594;2022-07-19T08:25:27;100529.44;;;31.31;51.13
46211;BME280;52144;48.040;-1.594;2022-07-19T08:27:55;100538.44;;;30.85;54.18
46211;BME280;52144;48.040;-1.594;2022-07-19T08:30:23;100543.44;;;30.61;55.74
46211;BME280;52144;48.040;-1.594;2022-07-19T08:33:12;100537.84;;;30.89;54.37
46211;BME280;52144;48.040;-1.594;2022-07-19T08:35:40;100559.56;;;30.71;54.96
46211;BME280;52144;48.040;-1.594;2022-07-19T08:38:08;100545.44;;;30.87;54.84
46211;BME280;52144;48.040;-1.594;2022-07-19T08:40:36;100540.06;;;30.59;55.58
46211;BME280;52144;48.040;-1.594;2022-07-19T08:43:09;100550.22;;;30.58;56.38
46211;BME280;52144;48.040;-1.594;2022-07-19T08:45:37;100559.88;;;30.41;58.01
46211;BME280;52144;48.040;-1.594;2022-07-19T08:48:07;100559.00;;;30.40;58.62
46211;BME280;52144;48.040;-1.594;2022-07-19T08:50:38;100560.84;;;30.82;58.59
46211;BME280;52144;48.040;-1.594;2022-07-19T08:53:07;100556.63;;;30.79;59.33
46211;BME280;52144;48.040;-1.594;2022-07-19T08:55:35;100571.94;;;30.95;59.91
46211;BME280;52144;48.040;-1.594;2022-07-19T08:58:03;100588.88;;;30.92;60.33
46211;BME280;52144;48.040;-1.594;2022-07-19T09:00:31;100577.69;;;31.07;60.74
46211;BME280;52144;48.040;-1.594;2022-07-19T09:03:00;100582.53;;;31.11;61.15
46211;BME280;52144;48.040;-1.594;2022-07-19T09:05:29;100576.44;;;31.23;60.98
46211;BME280;52144;48.040;-1.594;2022-07-19T09:08:06;100569.72;;;31.45;60.77
46211;BME280;52144;48.040;-1.594;2022-07-19T09:10:36;100563.31;;;31.91;59.88
46211;BME280;52144;48.040;-1.594;2022-07-19T09:13:11;100570.75;;;31.84;59.27
46211;BME280;52144;48.040;-1.594;2022-07-19T09:15:45;100587.72;;;31.68;60.55
46211;BME280;52144;48.040;-1.594;2022-07-19T09:18:17;100587.44;;;31.23;61.57
46211;BME280;52144;48.040;-1.594;2022-07-19T09:20:47;100590.34;;;30.88;62.71
46211;BME280;52144;48.040;-1.594;2022-07-19T09:23:17;100595.78;;;30.33;65.60
46211;BME280;52144;48.040;-1.594;2022-07-19T09:25:48;100598.06;;;30.71;64.18
46211;BME280;52144;48.040;-1.594;2022-07-19T09:28:17;100603.25;;;30.94;63.91
46211;BME280;52144;48.040;-1.594;2022-07-19T09:30:47;100600.78;;;31.32;62.43
46211;BME280;52144;48.040;-1.594;2022-07-19T09:33:17;100599.50;;;30.67;64.53
46211;BME280;52144;48.040;-1.594;2022-07-19T09:35:47;100613.28;;;29.75;69.09
46211;BME280;52144;48.040;-1.594;2022-07-19T09:38:22;100625.72;;;30.28;66.80
46211;BME280;52144;48.040;-1.594;2022-07-19T09:40:53;100635.88;;;29.71;68.54
46211;BME280;52144;48.040;-1.594;2022-07-19T09:43:21;100630.31;;;30.49;65.92
46211;BME280;52144;48.040;-1.594;2022-07-19T09:46:27;100612.06;;;30.83;64.82
46211;BME280;52144;48.040;-1.594;2022-07-19T09:49:00;100623.72;;;31.53;62.73
46211;BME280;52144;48.040;-1.594;2022-07-19T09:51:29;100618.31;;;29.93;67.76
46211;BME280;52144;48.040;-1.594;2022-07-19T09:53:59;100626.78;;;30.62;65.52
46211;BME280;52144;48.040;-1.594;2022-07-19T09:56:29;100618.94;;;31.13;64.45
46211;BME280;52144;48.040;-1.594;2022-07-19T09:58:58;100594.00;;;31.15;63.83
46211;BME280;52144;48.040;-1.594;2022-07-19T10:01:28;100565.00;;;30.16;65.91
46211;BME280;52144;48.040;-1.594;2022-07-19T10:04:00;100557.09;;;30.34;67.31
46211;BME280;52144;48.040;-1.594;2022-07-19T10:06:30;100574.22;;;29.73;67.49
46211;BME280;52144;48.040;-1.594;2022-07-19T10:09:02;100576.09;;;30.01;67.37
46211;BME280;52144;48.040;-1.594;2022-07-19T10:11:31;100572.72;;;29.99;68.05
46211;BME280;52144;48.040;-1.594;2022-07-19T10:13:59;100617.44;;;30.56;65.38
46211;BME280;52144;48.040;-1.594;2022-07-19T10:16:40;100673.72;;;30.95;66.11
46211;BME280;52144;48.040;-1.594;2022-07-19T10:19:15;100673.72;;;30.95;66.06
46211;BME280;52144;48.040;-1.594;2022-07-19T10:21:45;100694.00;;;30.59;66.97
46211;BME280;52144;48.040;-1.594;2022-07-19T10:24:14;100690.09;;;30.18;68.06
46211;BME280;52144;48.040;-1.594;2022-07-19T10:26:42;100711.06;;;28.44;73.12
46211;BME280;52144;48.040;-1.594;2022-07-19T10:29:12;100737.13;;;27.25;78.04
46211;BME280;52144;48.040;-1.594;2022-07-19T10:31:43;100733.97;;;27.44;77.11
46211;BME280;52144;48.040;-1.594;2022-07-19T10:34:21;100712.53;;;25.21;100.00
46211;BME280;52144;48.040;-1.594;2022-07-19T10:36:49;100699.88;;;25.12;100.00
46211;BME280;52144;48.040;-1.594;2022-07-19T10:39:24;100750.13;;;25.17;100.00
46211;BME280;52144;48.040;-1.594;2022-07-19T10:42:16;100749.06;;;25.02;100.00
46211;BME280;52144;48.040;-1.594;2022-07-19T10:45:13;100748.72;;;25.05;100.00
46211;BME280;52144;48.040;-1.594;2022-07-19T10:47:58;100752.84;;;24.49;100.00
46211;BME280;52144;48.040;-1.594;2022-07-19T10:50:51;100783.44;;;24.95;100.00
46211;BME280;52144;48.040;-1.594;2022-07-19T10:54:02;100764.72;;;24.48;100.00
46211;BME280;52144;48.040;-1.594;2022-07-19T10:59:35;100709.97;;;23.53;100.00
46211;BME280;52144;48.040;-1.594;2022-07-19T11:02:05;100673.16;;;23.94;100.00
46211;BME280;52144;48.040;-1.594;2022-07-19T11:04:53;100671.09;;;24.40;100.00
46211;BME280;52144;48.040;-1.594;2022-07-19T11:07:23;100647.16;;;24.26;100.00
46211;BME280;52144;48.040;-1.594;2022-07-19T11:09:53;100715.72;;;24.74;100.00
46211;BME280;52144;48.040;-1.594;2022-07-19T11:12:33;100738.34;;;24.22;100.00
46211;BME280;52144;48.040;-1.594;2022-07-19T11:15:07;100732.06;;;23.68;100.00
46211;BME280;52144;48.040;-1.594;2022-07-19T11:17:57;100742.50;;;23.90;100.00
46211;BME280;52144;48.040;-1.594;2022-07-19T11:20:26;100750.94;;;24.23;100.00
46211;BME280;52144;48.040;-1.594;2022-07-19T11:22:56;100758.06;;;24.42;100.00
46211;BME280;52144;48.040;-1.594;2022-07-19T11:25:26;100766.50;;;24.83;100.00
46211;BME280;52144;48.040;-1.594;2022-07-19T11:27:56;100770.06;;;25.10;100.00
46211;BME280;52144;48.040;-1.594;2022-07-19T11:30:26;100763.50;;;25.29;100.00
46211;BME280;52144;48.040;-1.594;2022-07-19T11:32:55;100742.47;;;24.78;100.00
46211;BME280;52144;48.040;-1.594;2022-07-19T11:35:24;100739.63;;;25.22;100.00
46211;BME280;52144;48.040;-1.594;2022-07-19T11:37:52;100756.72;;;25.33;100.00
46211;BME280;52144;48.040;-1.594;2022-07-19T11:40:22;100759.97;;;25.02;100.00
46211;BME280;52144;48.040;-1.594;2022-07-19T11:42:50;100757.22;;;25.36;100.00
46211;BME280;52144;48.040;-1.594;2022-07-19T11:45:45;100763.56;;;25.53;99.67
46211;BME280;52144;48.040;-1.594;2022-07-19T11:48:23;100757.38;;;25.27;100.00
46211;BME280;52144;48.040;-1.594;2022-07-19T11:51:01;100762.88;;;25.51;100.00
46211;BME280;52144;48.040;-1.594;2022-07-19T11:53:30;100760.03;;;25.18;100.00
46211;BME280;52144;48.040;-1.594;2022-07-19T11:55:58;100763.28;;;25.73;99.52
46211;BME280;52144;48.040;-1.594;2022-07-19T11:58:26;100767.09;;;25.96;95.42
46211;BME280;52144;48.040;-1.594;2022-07-19T12:01:02;100756.16;;;26.05;96.97
46211;BME280;52144;48.040;-1.594;2022-07-19T12:03:30;100745.19;;;25.72;97.10
46211;BME280;52144;48.040;-1.594;2022-07-19T12:06:00;100747.97;;;25.96;95.40
46211;BME280;52144;48.040;-1.594;2022-07-19T12:08:33;100760.25;;;25.92;95.37
46211;BME280;52144;48.040;-1.594;2022-07-19T12:11:01;100762.72;;;25.10;96.66
46211;BME280;52144;48.040;-1.594;2022-07-19T12:13:31;100764.78;;;25.59;93.15
46211;BME280;52144;48.040;-1.594;2022-07-19T12:16:08;100781.69;;;25.71;91.92
46211;BME280;52144;48.040;-1.594;2022-07-19T12:18:45;100782.25;;;25.91;92.06
46211;BME280;52144;48.040;-1.594;2022-07-19T12:21:19;100787.56;;;26.00;91.64
46211;BME280;52144;48.040;-1.594;2022-07-19T12:24:19;100796.59;;;26.09;86.45
46211;BME280;52144;48.040;-1.594;2022-07-19T12:26:58;100796.94;;;26.72;84.81
46211;BME280;52144;48.040;-1.594;2022-07-19T12:29:28;100803.09;;;26.49;82.14
46211;BME280;52144;48.040;-1.594;2022-07-19T12:31:59;100807.13;;;25.79;86.03
46211;BME280;52144;48.040;-1.594;2022-07-19T12:34:28;100800.28;;;25.75;86.44
46211;BME280;52144;48.040;-1.594;2022-07-19T12:36:56;100796.44;;;26.35;83.09
46211;BME280;52144;48.040;-1.594;2022-07-19T12:39:26;100801.56;;;26.38;84.37
46211;BME280;52144;48.040;-1.594;2022-07-19T12:42:01;100796.34;;;27.01;83.37
46211;BME280;52144;48.040;-1.594;2022-07-19T12:44:30;100783.50;;;27.49;80.13
46211;BME280;52144;48.040;-1.594;2022-07-19T12:47:00;100792.28;;;27.68;77.07
46211;BME280;52144;48.040;-1.594;2022-07-19T12:49:48;100785.66;;;27.31;81.10
46211;BME280;52144;48.040;-1.594;2022-07-19T12:52:29;100789.09;;;28.33;77.09
46211;BME280;52144;48.040;-1.594;2022-07-19T12:54:57;100786.66;;;28.38;72.61
46211;BME280;52144;48.040;-1.594;2022-07-19T12:57:25;100795.19;;;28.44;73.61